sensor_id;sensor_type;location;lat;lon;timestamp;P1;durP1;ratioP1;P2;durP2;ratioP2
73321;SDS011;61549;37.044;22.128;2022-08-25T00:01:07;6.38;;;3.53;;
73321;SDS011;61549;37.044;22.128;2022-08-25T00:03:54;7.30;;;3.70;;
73321;SDS011;61549;37.044;22.128;2022-08-25T00:06:21;7.00;;;3.60;;
73321;SDS011;61549;37.044;22.128;2022-08-25T00:08:48;8.23;;;3.80;;
73321;SDS011;61549;37.044;22.128;2022-08-25T00:11:16;5.88;;;3.60;;
73321;SDS011;61549;37.044;22.128;2022-08-25T00:13:45;7.15;;;3.80;;
73321;SDS011;61549;37.044;22.128;2022-08-25T00:16:15;7.35;;;3.47;;
73321;SDS011;61549;37.044;22.128;2022-08-25T00:18:44;5.95;;;3.70;;
73321;SDS011;61549;37.044;22.128;2022-08-25T00:21:13;8.65;;;3.70;;
73321;SDS011;61549;37.044;22.128;2022-08-25T00:23:40;6.85;;;3.63;;
73321;SDS011;61549;37.044;22.128;2022-08-25T00:26:07;7.88;;;4.00;;
73321;SDS011;61549;37.044;22.128;2022-08-25T00:28:34;6.60;;;3.80;;
73321;SDS011;61549;37.044;22.128;2022-08-25T00:31:01;6.55;;;3.90;;
73321;SDS011;61549;37.044;22.128;2022-08-25T00:33:28;6.40;;;3.67;;
73321;SDS011;61549;37.044;22.128;2022-08-25T00:35:55;6.65;;;3.90;;
73321;SDS011;61549;37.044;22.128;2022-08-25T00:38:22;6.95;;;3.97;;
73321;SDS011;61549;37.044;22.128;2022-08-25T00:40:48;5.93;;;3.88;;
73321;SDS011;61549;37.044;22.128;2022-08-25T00:46:21;10.27;;;4.30;;
73321;SDS011;61549;37.044;22.128;2022-08-25T00:48:56;6.18;;;3.88;;
73321;SDS011;61549;37.044;22.128;2022-08-25T00:51:34;5.05;;;3.80;;
73321;SDS011;61549;37.044;22.128;2022-08-25T00:54:04;7.28;;;4.03;;
73321;SDS011;61549;37.044;22.128;2022-08-25T00:56:33;6.47;;;4.15;;
73321;SDS011;61549;37.044;22.128;2022-08-25T00:59:00;6.72;;;3.88;;
73321;SDS011;61549;37.044;22.128;2022-08-25T01:01:28;6.15;;;4.05;;
73321;SDS011;61549;37.044;22.128;2022-08-25T01:03:54;6.38;;;4.28;;
73321;SDS011;61549;37.044;22.128;2022-08-25T01:06:20;5.85;;;4.07;;
73321;SDS011;61549;37.044;22.128;2022-08-25T01:08:47;8.25;;;4.38;;
73321;SDS011;61549;37.044;22.128;2022-08-25T01:11:14;5.22;;;4.10;;
73321;SDS011;61549;37.044;22.128;2022-08-25T01:13:41;7.68;;;4.22;;
73321;SDS011;61549;37.044;22.128;2022-08-25T01:16:10;5.72;;;3.70;;
73321;SDS011;61549;37.044;22.128;2022-08-25T01:21:16;5.93;;;4.07;;
73321;SDS011;61549;37.044;22.128;2022-08-25T01:23:44;7.35;;;4.15;;
73321;SDS011;61549;37.044;22.128;2022-08-25T01:26:13;5.18;;;4.28;;
73321;SDS011;61549;37.044;22.128;2022-08-25T01:28:42;7.88;;;4.20;;
73321;SDS011;61549;37.044;22.128;2022-08-25T01:31:28;8.10;;;3.95;;
73321;SDS011;61549;37.044;22.128;2022-08-25T01:33:55;6.75;;;3.90;;
73321;SDS011;61549;37.044;22.128;2022-08-25T01:36:22;5.82;;;4.25;;
73321;SDS011;61549;37.044;22.128;2022-08-25T01:38:49;7.28;;;3.83;;
73321;SDS011;61549;37.044;22.128;2022-08-25T01:41:30;9.00;;;4.25;;
73321;SDS011;61549;37.044;22.128;2022-08-25T01:44:14;7.40;;;4.25;;
73321;SDS011;61549;37.044;22.128;2022-08-25T01:46:41;6.05;;;4.18;;
73321;SDS011;61549;37.044;22.128;2022-08-25T01:49:08;5.65;;;4.20;;
73321;SDS011;61549;37.044;22.128;2022-08-25T01:51:39;6.18;;;3.90;;
73321;SDS011;61549;37.044;22.128;2022-08-25T01:54:08;7.00;;;4.35;;
73321;SDS011;61549;37.044;22.128;2022-08-25T01:56:34;6.10;;;4.25;;
73321;SDS011;61549;37.044;22.128;2022-08-25T01:59:00;6.32;;;4.50;;
73321;SDS011;61549;37.044;22.128;2022-08-25T02:01:26;6.35;;;4.30;;
73321;SDS011;61549;37.044;22.128;2022-08-25T02:03:53;6.60;;;4.25;;
73321;SDS011;61549;37.044;22.128;2022-08-25T02:06:23;5.85;;;4.60;;
73321;SDS011;61549;37.044;22.128;2022-08-25T02:08:57;5.70;;;4.35;;
73321;SDS011;61549;37.044;22.128;2022-08-25T02:11:25;6.55;;;4.40;;
73321;SDS011;61549;37.044;22.128;2022-08-25T02:13:51;6.90;;;4.50;;
73321;SDS011;61549;37.044;22.128;2022-08-25T02:16:25;6.28;;;4.70;;
73321;SDS011;61549;37.044;22.128;2022-08-25T02:18:54;7.93;;;4.70;;
73321;SDS011;61549;37.044;22.128;2022-08-25T02:21:21;6.57;;;4.63;;
73321;SDS011;61549;37.044;22.128;2022-08-25T02:23:46;8.38;;;4.80;;
73321;SDS011;61549;37.044;22.128;2022-08-25T02:26:13;7.43;;;4.82;;
73321;SDS011;61549;37.044;22.128;2022-08-25T02:28:43;7.95;;;4.85;;
73321;SDS011;61549;37.044;22.128;2022-08-25T02:31:10;7.00;;;4.60;;
73321;SDS011;61549;37.044;22.128;2022-08-25T02:33:37;5.75;;;4.82;;
73321;SDS011;61549;37.044;22.128;2022-08-25T02:36:03;6.88;;;4.85;;
73321;SDS011;61549;37.044;22.128;2022-08-25T02:38:30;7.32;;;4.97;;
73321;SDS011;61549;37.044;22.128;2022-08-25T02:40:56;5.70;;;4.32;;
73321;SDS011;61549;37.044;22.128;2022-08-25T02:43:24;7.40;;;4.60;;
73321;SDS011;61549;37.044;22.128;2022-08-25T02:45:51;11.35;;;4.97;;
73321;SDS011;61549;37.044;22.128;2022-08-25T02:48:18;5.78;;;4.45;;
73321;SDS011;61549;37.044;22.128;2022-08-25T02:50:47;6.28;;;5.10;;
73321;SDS011;61549;37.044;22.128;2022-08-25T02:53:15;7.10;;;4.38;;
73321;SDS011;61549;37.044;22.128;2022-08-25T02:55:41;8.02;;;4.68;;
73321;SDS011;61549;37.044;22.128;2022-08-25T02:58:07;7.22;;;4.40;;
73321;SDS011;61549;37.044;22.128;2022-08-25T03:00:33;7.90;;;4.95;;
73321;SDS011;61549;37.044;22.128;2022-08-25T03:02:59;9.13;;;4.18;;
73321;SDS011;61549;37.044;22.128;2022-08-25T03:05:25;5.97;;;4.25;;
73321;SDS011;61549;37.044;22.128;2022-08-25T03:07:51;5.38;;;4.25;;
73321;SDS011;61549;37.044;22.128;2022-08-25T03:10:17;8.35;;;4.07;;
73321;SDS011;61549;37.044;22.128;2022-08-25T03:12:44;6.85;;;4.25;;
73321;SDS011;61549;37.044;22.128;2022-08-25T03:15:11;6.70;;;4.00;;
73321;SDS011;61549;37.044;22.128;2022-08-25T03:17:45;9.88;;;4.50;;
73321;SDS011;61549;37.044;22.128;2022-08-25T03:20:15;5.45;;;4.03;;
73321;SDS011;61549;37.044;22.128;2022-08-25T03:22:42;8.50;;;4.07;;
73321;SDS011;61549;37.044;22.128;2022-08-25T03:25:08;8.32;;;4.10;;
73321;SDS011;61549;37.044;22.128;2022-08-25T03:27:53;6.68;;;4.03;;
73321;SDS011;61549;37.044;22.128;2022-08-25T03:30:19;7.65;;;4.20;;
73321;SDS011;61549;37.044;22.128;2022-08-25T03:32:45;5.88;;;4.40;;
73321;SDS011;61549;37.044;22.128;2022-08-25T03:35:11;8.70;;;4.38;;
73321;SDS011;61549;37.044;22.128;2022-08-25T03:37:37;5.90;;;4.13;;
73321;SDS011;61549;37.044;22.128;2022-08-25T03:40:04;7.43;;;4.25;;
73321;SDS011;61549;37.044;22.128;2022-08-25T03:42:33;7.65;;;4.40;;
73321;SDS011;61549;37.044;22.128;2022-08-25T03:45:03;7.25;;;4.30;;
73321;SDS011;61549;37.044;22.128;2022-08-25T03:47:29;7.57;;;4.22;;
73321;SDS011;61549;37.044;22.128;2022-08-25T03:49:55;8.10;;;4.30;;
73321;SDS011;61549;37.044;22.128;2022-08-25T03:52:21;6.93;;;4.40;;
73321;SDS011;61549;37.044;22.128;2022-08-25T03:54:47;6.35;;;4.28;;
73321;SDS011;61549;37.044;22.128;2022-08-25T03:57:13;4.78;;;3.95;;
73321;SDS011;61549;37.044;22.128;2022-08-25T03:59:39;8.32;;;3.90;;
73321;SDS011;61549;37.044;22.128;2022-08-25T04:02:06;6.03;;;4.45;;
73321;SDS011;61549;37.044;22.128;2022-08-25T04:04:33;7.38;;;4.45;;
73321;SDS011;61549;37.044;22.128;2022-08-25T04:06:59;7.88;;;4.40;;
73321;SDS011;61549;37.044;22.128;2022-08-25T04:09:26;9.75;;;4.32;;
73321;SDS011;61549;37.044;22.128;2022-08-25T04:11:52;6.28;;;4.38;;
73321;SDS011;61549;37.044;22.128;2022-08-25T04:14:18;7.38;;;4.22;;
73321;SDS011;61549;37.044;22.128;2022-08-25T04:16:45;6.93;;;4.38;;
73321;SDS011;61549;37.044;22.128;2022-08-25T04:19:11;6.90;;;4.60;;
73321;SDS011;61549;37.044;22.128;2022-08-25T04:21:38;8.80;;;4.80;;
73321;SDS011;61549;37.044;22.128;2022-08-25T04:24:05;7.88;;;4.72;;
73321;SDS011;61549;37.044;22.128;2022-08-25T04:26:33;7.38;;;5.22;;
73321;SDS011;61549;37.044;22.128;2022-08-25T04:29:08;9.23;;;5.32;;
73321;SDS011;61549;37.044;22.128;2022-08-25T04:31:38;6.65;;;5.05;;
73321;SDS011;61549;37.044;22.128;2022-08-25T04:34:05;7.15;;;4.90;;
73321;SDS011;61549;37.044;22.128;2022-08-25T04:36:31;7.88;;;4.88;;
73321;SDS011;61549;37.044;22.128;2022-08-25T04:38:57;7.45;;;5.13;;
73321;SDS011;61549;37.044;22.128;2022-08-25T04:41:24;9.20;;;5.15;;
73321;SDS011;61549;37.044;22.128;2022-08-25T04:43:50;8.38;;;5.15;;
73321;SDS011;61549;37.044;22.128;2022-08-25T04:46:21;10.45;;;5.00;;
73321;SDS011;61549;37.044;22.128;2022-08-25T04:48:49;8.65;;;4.80;;
73321;SDS011;61549;37.044;22.128;2022-08-25T04:51:17;7.95;;;5.20;;
73321;SDS011;61549;37.044;22.128;2022-08-25T04:53:47;7.60;;;4.75;;
73321;SDS011;61549;37.044;22.128;2022-08-25T04:56:15;9.45;;;4.80;;
73321;SDS011;61549;37.044;22.128;2022-08-25T04:58:42;7.18;;;4.93;;
73321;SDS011;61549;37.044;22.128;2022-08-25T05:01:17;7.03;;;5.00;;
73321;SDS011;61549;37.044;22.128;2022-08-25T05:03:45;9.40;;;4.90;;
73321;SDS011;61549;37.044;22.128;2022-08-25T05:06:13;8.73;;;5.10;;
73321;SDS011;61549;37.044;22.128;2022-08-25T05:08:39;7.07;;;5.03;;
73321;SDS011;61549;37.044;22.128;2022-08-25T05:11:05;6.13;;;4.68;;
73321;SDS011;61549;37.044;22.128;2022-08-25T05:13:33;6.57;;;5.18;;
73321;SDS011;61549;37.044;22.128;2022-08-25T05:15:59;6.32;;;4.85;;
73321;SDS011;61549;37.044;22.128;2022-08-25T05:18:28;8.35;;;4.80;;
73321;SDS011;61549;37.044;22.128;2022-08-25T05:20:59;8.27;;;4.65;;
73321;SDS011;61549;37.044;22.128;2022-08-25T05:23:30;7.43;;;4.68;;
73321;SDS011;61549;37.044;22.128;2022-08-25T05:26:00;7.60;;;4.32;;
73321;SDS011;61549;37.044;22.128;2022-08-25T05:28:40;6.22;;;4.07;;
73321;SDS011;61549;37.044;22.128;2022-08-25T05:31:07;8.27;;;4.60;;
73321;SDS011;61549;37.044;22.128;2022-08-25T05:33:34;6.70;;;4.50;;
73321;SDS011;61549;37.044;22.128;2022-08-25T05:36:01;6.88;;;4.20;;
73321;SDS011;61549;37.044;22.128;2022-08-25T05:38:28;6.45;;;4.18;;
73321;SDS011;61549;37.044;22.128;2022-08-25T05:40:58;5.78;;;4.20;;
73321;SDS011;61549;37.044;22.128;2022-08-25T05:43:29;9.20;;;3.53;;
73321;SDS011;61549;37.044;22.128;2022-08-25T05:45:56;5.47;;;3.90;;
73321;SDS011;61549;37.044;22.128;2022-08-25T05:48:23;5.80;;;4.32;;
73321;SDS011;61549;37.044;22.128;2022-08-25T05:50:54;4.75;;;3.80;;
73321;SDS011;61549;37.044;22.128;2022-08-25T05:53:21;64.65;;;9.88;;
73321;SDS011;61549;37.044;22.128;2022-08-25T05:55:49;8.05;;;3.70;;
73321;SDS011;61549;37.044;22.128;2022-08-25T05:58:16;5.88;;;4.00;;
73321;SDS011;61549;37.044;22.128;2022-08-25T06:00:42;5.22;;;3.75;;
73321;SDS011;61549;37.044;22.128;2022-08-25T06:03:09;7.72;;;3.95;;
73321;SDS011;61549;37.044;22.128;2022-08-25T06:05:35;6.10;;;4.20;;
73321;SDS011;61549;37.044;22.128;2022-08-25T06:08:00;7.40;;;3.78;;
73321;SDS011;61549;37.044;22.128;2022-08-25T06:10:27;6.18;;;4.15;;
73321;SDS011;61549;37.044;22.128;2022-08-25T06:12:52;5.90;;;4.10;;
73321;SDS011;61549;37.044;22.128;2022-08-25T06:15:20;8.65;;;4.13;;
73321;SDS011;61549;37.044;22.128;2022-08-25T06:17:48;6.45;;;4.00;;
73321;SDS011;61549;37.044;22.128;2022-08-25T06:20:15;7.28;;;4.32;;
73321;SDS011;61549;37.044;22.128;2022-08-25T06:22:46;4.97;;;3.90;;
73321;SDS011;61549;37.044;22.128;2022-08-25T06:25:18;4.95;;;3.72;;
73321;SDS011;61549;37.044;22.128;2022-08-25T06:27:45;5.60;;;3.90;;
73321;SDS011;61549;37.044;22.128;2022-08-25T06:30:12;6.78;;;4.30;;
73321;SDS011;61549;37.044;22.128;2022-08-25T06:32:41;5.55;;;3.80;;
73321;SDS011;61549;37.044;22.128;2022-08-25T06:35:09;7.38;;;3.90;;
73321;SDS011;61549;37.044;22.128;2022-08-25T06:37:36;4.82;;;3.88;;
73321;SDS011;61549;37.044;22.128;2022-08-25T06:40:04;4.90;;;3.20;;
73321;SDS011;61549;37.044;22.128;2022-08-25T06:42:31;3.35;;;2.53;;
73321;SDS011;61549;37.044;22.128;2022-08-25T06:44:57;5.18;;;3.03;;
73321;SDS011;61549;37.044;22.128;2022-08-25T06:47:23;6.47;;;3.20;;
73321;SDS011;61549;37.044;22.128;2022-08-25T06:49:49;4.43;;;3.13;;
73321;SDS011;61549;37.044;22.128;2022-08-25T06:52:15;5.35;;;3.10;;
73321;SDS011;61549;37.044;22.128;2022-08-25T06:54:41;6.68;;;3.50;;
73321;SDS011;61549;37.044;22.128;2022-08-25T06:57:07;4.95;;;3.10;;
73321;SDS011;61549;37.044;22.128;2022-08-25T06:59:33;3.58;;;3.17;;
73321;SDS011;61549;37.044;22.128;2022-08-25T07:02:00;4.53;;;3.10;;
73321;SDS011;61549;37.044;22.128;2022-08-25T07:04:28;5.03;;;3.03;;
73321;SDS011;61549;37.044;22.128;2022-08-25T07:06:54;8.55;;;2.92;;
73321;SDS011;61549;37.044;22.128;2022-08-25T07:09:20;3.35;;;2.00;;
73321;SDS011;61549;37.044;22.128;2022-08-25T07:11:46;5.68;;;2.35;;
73321;SDS011;61549;37.044;22.128;2022-08-25T07:14:13;4.30;;;2.22;;
73321;SDS011;61549;37.044;22.128;2022-08-25T07:16:42;3.25;;;2.25;;
73321;SDS011;61549;37.044;22.128;2022-08-25T07:19:08;3.35;;;2.00;;
73321;SDS011;61549;37.044;22.128;2022-08-25T07:21:35;4.05;;;2.30;;
73321;SDS011;61549;37.044;22.128;2022-08-25T07:24:10;4.00;;;2.30;;
73321;SDS011;61549;37.044;22.128;2022-08-25T07:26:37;4.00;;;2.55;;
73321;SDS011;61549;37.044;22.128;2022-08-25T07:29:07;7.20;;;2.60;;
73321;SDS011;61549;37.044;22.128;2022-08-25T07:31:38;4.53;;;2.60;;
73321;SDS011;61549;37.044;22.128;2022-08-25T07:34:05;3.60;;;2.65;;
73321;SDS011;61549;37.044;22.128;2022-08-25T07:36:50;5.07;;;2.55;;
73321;SDS011;61549;37.044;22.128;2022-08-25T07:39:16;4.28;;;2.20;;
73321;SDS011;61549;37.044;22.128;2022-08-25T07:41:42;3.30;;;2.20;;
73321;SDS011;61549;37.044;22.128;2022-08-25T07:44:08;3.83;;;2.70;;
73321;SDS011;61549;37.044;22.128;2022-08-25T07:46:36;6.75;;;2.63;;
73321;SDS011;61549;37.044;22.128;2022-08-25T07:49:02;7.07;;;2.97;;
73321;SDS011;61549;37.044;22.128;2022-08-25T07:51:28;4.13;;;3.28;;
73321;SDS011;61549;37.044;22.128;2022-08-25T07:53:54;4.60;;;3.15;;
73321;SDS011;61549;37.044;22.128;2022-08-25T07:56:20;3.80;;;3.22;;
73321;SDS011;61549;37.044;22.128;2022-08-25T07:58:46;5.00;;;3.20;;
73321;SDS011;61549;37.044;22.128;2022-08-25T08:01:13;5.40;;;3.55;;
73321;SDS011;61549;37.044;22.128;2022-08-25T08:03:40;5.07;;;3.30;;
73321;SDS011;61549;37.044;22.128;2022-08-25T08:06:07;3.75;;;3.22;;
73321;SDS011;61549;37.044;22.128;2022-08-25T08:08:36;4.30;;;3.10;;
73321;SDS011;61549;37.044;22.128;2022-08-25T08:11:03;5.72;;;3.10;;
73321;SDS011;61549;37.044;22.128;2022-08-25T08:13:29;5.03;;;3.00;;
73321;SDS011;61549;37.044;22.128;2022-08-25T08:15:56;4.07;;;2.88;;
73321;SDS011;61549;37.044;22.128;2022-08-25T08:18:22;5.82;;;2.92;;
73321;SDS011;61549;37.044;22.128;2022-08-25T08:20:48;6.13;;;3.00;;
73321;SDS011;61549;37.044;22.128;2022-08-25T08:23:15;6.55;;;3.10;;
73321;SDS011;61549;37.044;22.128;2022-08-25T08:25:41;6.72;;;3.08;;
73321;SDS011;61549;37.044;22.128;2022-08-25T08:28:07;5.18;;;2.60;;
73321;SDS011;61549;37.044;22.128;2022-08-25T08:30:33;4.18;;;2.70;;
73321;SDS011;61549;37.044;22.128;2022-08-25T08:33:00;3.97;;;2.58;;
73321;SDS011;61549;37.044;22.128;2022-08-25T08:35:26;4.55;;;2.55;;
73321;SDS011;61549;37.044;22.128;2022-08-25T08:37:52;5.85;;;2.63;;
73321;SDS011;61549;37.044;22.128;2022-08-25T08:40:18;4.00;;;1.92;;
73321;SDS011;61549;37.044;22.128;2022-08-25T08:42:54;5.00;;;2.00;;
73321;SDS011;61549;37.044;22.128;2022-08-25T08:45:36;4.50;;;2.00;;
73321;SDS011;61549;37.044;22.128;2022-08-25T08:53:44;4.40;;;2.38;;
73321;SDS011;61549;37.044;22.128;2022-08-25T08:56:37;3.72;;;2.20;;
73321;SDS011;61549;37.044;22.128;2022-08-25T08:59:10;3.67;;;2.50;;
73321;SDS011;61549;37.044;22.128;2022-08-25T09:01:51;3.90;;;2.50;;
73321;SDS011;61549;37.044;22.128;2022-08-25T09:04:34;3.47;;;2.42;;
73321;SDS011;61549;37.044;22.128;2022-08-25T09:07:02;4.43;;;2.40;;
73321;SDS011;61549;37.044;22.128;2022-08-25T09:09:35;4.75;;;2.30;;
73321;SDS011;61549;37.044;22.128;2022-08-25T09:14:43;5.38;;;2.38;;
73321;SDS011;61549;37.044;22.128;2022-08-25T09:17:21;3.92;;;2.10;;
73321;SDS011;61549;37.044;22.128;2022-08-25T09:20:10;4.78;;;2.40;;
73321;SDS011;61549;37.044;22.128;2022-08-25T09:25:46;5.05;;;2.08;;
73321;SDS011;61549;37.044;22.128;2022-08-25T09:33:56;5.25;;;2.42;;
73321;SDS011;61549;37.044;22.128;2022-08-25T09:36:24;5.82;;;2.20;;
73321;SDS011;61549;37.044;22.128;2022-08-25T09:38:51;6.20;;;2.65;;
73321;SDS011;61549;37.044;22.128;2022-08-25T09:41:17;5.32;;;3.00;;
73321;SDS011;61549;37.044;22.128;2022-08-25T09:44:18;4.22;;;2.63;;
73321;SDS011;61549;37.044;22.128;2022-08-25T09:49:46;8.77;;;2.95;;
73321;SDS011;61549;37.044;22.128;2022-08-25T09:52:30;5.32;;;3.08;;
73321;SDS011;61549;37.044;22.128;2022-08-25T10:05:28;6.03;;;3.25;;
73321;SDS011;61549;37.044;22.128;2022-08-25T10:07:59;4.88;;;3.33;;
73321;SDS011;61549;37.044;22.128;2022-08-25T10:10:30;6.55;;;3.22;;
73321;SDS011;61549;37.044;22.128;2022-08-25T10:13:00;3.75;;;2.90;;
73321;SDS011;61549;37.044;22.128;2022-08-25T10:15:31;5.75;;;3.20;;
73321;SDS011;61549;37.044;22.128;2022-08-25T10:18:15;4.30;;;2.92;;
73321;SDS011;61549;37.044;22.128;2022-08-25T10:21:01;4.28;;;2.92;;
73321;SDS011;61549;37.044;22.128;2022-08-25T10:23:46;8.25;;;3.33;;
73321;SDS011;61549;37.044;22.128;2022-08-25T10:26:19;4.93;;;3.10;;
73321;SDS011;61549;37.044;22.128;2022-08-25T10:29:07;4.50;;;3.10;;
73321;SDS011;61549;37.044;22.128;2022-08-25T10:31:52;3.80;;;3.17;;
73321;SDS011;61549;37.044;22.128;2022-08-25T10:37:23;4.68;;;3.08;;
73321;SDS011;61549;37.044;22.128;2022-08-25T10:40:09;5.35;;;2.65;;
73321;SDS011;61549;37.044;22.128;2022-08-25T10:45:31;3.63;;;1.80;;
73321;SDS011;61549;37.044;22.128;2022-08-25T10:51:26;4.40;;;2.17;;
73321;SDS011;61549;37.044;22.128;2022-08-25T10:57:19;3.47;;;2.00;;
73321;SDS011;61549;37.044;22.128;2022-08-25T10:59:58;3.22;;;1.70;;
73321;SDS011;61549;37.044;22.128;2022-08-25T11:03:07;3.90;;;1.50;;
73321;SDS011;61549;37.044;22.128;2022-08-25T11:05:29;1.90;;;1.35;;
73321;SDS011;61549;37.044;22.128;2022-08-25T11:11:32;4.15;;;1.60;;
73321;SDS011;61549;37.044;22.128;2022-08-25T11:14:06;3.05;;;1.60;;
73321;SDS011;61549;37.044;22.128;2022-08-25T11:16:40;2.42;;;1.40;;
73321;SDS011;61549;37.044;22.128;2022-08-25T11:19:17;2.95;;;1.65;;
73321;SDS011;61549;37.044;22.128;2022-08-25T11:21:52;2.42;;;1.30;;
73321;SDS011;61549;37.044;22.128;2022-08-25T11:27:32;5.40;;;1.48;;
73321;SDS011;61549;37.044;22.128;2022-08-25T11:30:07;2.83;;;1.83;;
73321;SDS011;61549;37.044;22.128;2022-08-25T11:32:36;3.03;;;1.38;;
73321;SDS011;61549;37.044;22.128;2022-08-25T11:35:04;4.00;;;1.65;;
73321;SDS011;61549;37.044;22.128;2022-08-25T11:37:34;3.60;;;1.90;;
73321;SDS011;61549;37.044;22.128;2022-08-25T11:43:00;3.35;;;1.65;;
73321;SDS011;61549;37.044;22.128;2022-08-25T11:48:36;4.63;;;2.13;;
73321;SDS011;61549;37.044;22.128;2022-08-25T11:51:32;4.15;;;2.00;;
73321;SDS011;61549;37.044;22.128;2022-08-25T11:59:58;3.97;;;2.20;;
73321;SDS011;61549;37.044;22.128;2022-08-25T12:02:39;2.55;;;1.90;;
73321;SDS011;61549;37.044;22.128;2022-08-25T12:10:56;3.38;;;1.98;;
73321;SDS011;61549;37.044;22.128;2022-08-25T12:13:24;3.63;;;1.83;;
73321;SDS011;61549;37.044;22.128;2022-08-25T12:16:05;2.47;;;2.05;;
73321;SDS011;61549;37.044;22.128;2022-08-25T12:21:10;4.03;;;2.00;;
73321;SDS011;61549;37.044;22.128;2022-08-25T12:23:39;5.25;;;2.10;;
73321;SDS011;61549;37.044;22.128;2022-08-25T12:31:44;3.15;;;2.30;;
73321;SDS011;61549;37.044;22.128;2022-08-25T12:36:58;3.08;;;1.95;;
73321;SDS011;61549;37.044;22.128;2022-08-25T12:47:50;3.95;;;2.08;;
73321;SDS011;61549;37.044;22.128;2022-08-25T12:50:43;4.47;;;1.80;;
73321;SDS011;61549;37.044;22.128;2022-08-25T13:15:12;3.95;;;1.38;;
73321;SDS011;61549;37.044;22.128;2022-08-25T13:17:40;1.80;;;1.13;;
73321;SDS011;61549;37.044;22.128;2022-08-25T13:20:14;2.28;;;1.27;;
73321;SDS011;61549;37.044;22.128;2022-08-25T13:22:42;2.00;;;1.20;;
73321;SDS011;61549;37.044;22.128;2022-08-25T13:25:17;2.15;;;1.20;;
73321;SDS011;61549;37.044;22.128;2022-08-25T13:27:54;2.00;;;1.10;;
73321;SDS011;61549;37.044;22.128;2022-08-25T13:30:25;1.27;;;1.10;;
73321;SDS011;61549;37.044;22.128;2022-08-25T13:32:56;0.88;;;0.82;;
73321;SDS011;61549;37.044;22.128;2022-08-25T13:35:24;1.73;;;0.90;;
73321;SDS011;61549;37.044;22.128;2022-08-25T13:37:53;1.20;;;0.82;;
73321;SDS011;61549;37.044;22.128;2022-08-25T13:40:38;1.52;;;1.00;;
73321;SDS011;61549;37.044;22.128;2022-08-25T13:43:05;2.58;;;1.30;;
73321;SDS011;61549;37.044;22.128;2022-08-25T13:45:36;2.58;;;1.58;;
73321;SDS011;61549;37.044;22.128;2022-08-25T13:48:08;4.32;;;1.52;;
73321;SDS011;61549;37.044;22.128;2022-08-25T13:50:35;6.07;;;2.05;;
73321;SDS011;61549;37.044;22.128;2022-08-25T13:53:13;2.97;;;1.40;;
73321;SDS011;61549;37.044;22.128;2022-08-25T13:55:58;3.13;;;1.60;;
73321;SDS011;61549;37.044;22.128;2022-08-25T13:58:32;2.92;;;1.58;;
73321;SDS011;61549;37.044;22.128;2022-08-25T14:03:35;2.55;;;1.40;;
73321;SDS011;61549;37.044;22.128;2022-08-25T14:08:42;2.50;;;1.40;;
73321;SDS011;61549;37.044;22.128;2022-08-25T14:11:22;2.78;;;1.40;;
73321;SDS011;61549;37.044;22.128;2022-08-25T14:14:02;3.85;;;1.42;;
73321;SDS011;61549;37.044;22.128;2022-08-25T14:16:35;2.17;;;1.40;;
73321;SDS011;61549;37.044;22.128;2022-08-25T14:19:13;3.65;;;1.42;;
73321;SDS011;61549;37.044;22.128;2022-08-25T14:21:42;2.30;;;1.50;;
73321;SDS011;61549;37.044;22.128;2022-08-25T14:24:08;2.15;;;1.52;;
73321;SDS011;61549;37.044;22.128;2022-08-25T14:26:39;3.53;;;1.50;;
73321;SDS011;61549;37.044;22.128;2022-08-25T14:29:05;5.05;;;1.55;;
73321;SDS011;61549;37.044;22.128;2022-08-25T14:31:33;3.03;;;1.60;;
73321;SDS011;61549;37.044;22.128;2022-08-25T14:34:07;4.25;;;1.50;;
73321;SDS011;61549;37.044;22.128;2022-08-25T14:36:37;2.10;;;1.40;;
73321;SDS011;61549;37.044;22.128;2022-08-25T14:39:03;3.58;;;1.55;;
73321;SDS011;61549;37.044;22.128;2022-08-25T14:41:31;2.33;;;1.40;;
73321;SDS011;61549;37.044;22.128;2022-08-25T14:43:59;3.42;;;1.45;;
73321;SDS011;61549;37.044;22.128;2022-08-25T14:46:26;2.90;;;1.60;;
73321;SDS011;61549;37.044;22.128;2022-08-25T14:48:57;2.95;;;1.77;;
73321;SDS011;61549;37.044;22.128;2022-08-25T14:51:25;2.75;;;1.83;;
73321;SDS011;61549;37.044;22.128;2022-08-25T14:53:53;3.05;;;1.70;;
73321;SDS011;61549;37.044;22.128;2022-08-25T14:56:23;2.28;;;1.88;;
73321;SDS011;61549;37.044;22.128;2022-08-25T14:58:49;2.83;;;2.03;;
73321;SDS011;61549;37.044;22.128;2022-08-25T15:01:16;3.88;;;2.17;;
73321;SDS011;61549;37.044;22.128;2022-08-25T15:03:44;4.80;;;2.20;;
73321;SDS011;61549;37.044;22.128;2022-08-25T15:06:12;3.42;;;2.00;;
73321;SDS011;61549;37.044;22.128;2022-08-25T15:08:40;7.60;;;2.70;;
73321;SDS011;61549;37.044;22.128;2022-08-25T15:11:31;4.32;;;2.28;;
73321;SDS011;61549;37.044;22.128;2022-08-25T15:13:58;3.33;;;1.90;;
73321;SDS011;61549;37.044;22.128;2022-08-25T15:18:54;4.47;;;2.70;;
73321;SDS011;61549;37.044;22.128;2022-08-25T15:21:20;5.57;;;2.72;;
73321;SDS011;61549;37.044;22.128;2022-08-25T15:23:47;4.68;;;2.50;;
73321;SDS011;61549;37.044;22.128;2022-08-25T15:26:13;3.33;;;2.10;;
73321;SDS011;61549;37.044;22.128;2022-08-25T15:28:43;4.63;;;2.00;;
73321;SDS011;61549;37.044;22.128;2022-08-25T15:31:13;3.53;;;2.20;;
73321;SDS011;61549;37.044;22.128;2022-08-25T15:33:39;5.72;;;2.70;;
73321;SDS011;61549;37.044;22.128;2022-08-25T15:36:06;5.15;;;2.60;;
73321;SDS011;61549;37.044;22.128;2022-08-25T15:38:35;5.90;;;2.40;;
73321;SDS011;61549;37.044;22.128;2022-08-25T15:41:02;4.97;;;2.60;;
73321;SDS011;61549;37.044;22.128;2022-08-25T15:43:29;4.40;;;2.50;;
73321;SDS011;61549;37.044;22.128;2022-08-25T15:45:55;5.95;;;2.30;;
73321;SDS011;61549;37.044;22.128;2022-08-25T15:48:21;4.45;;;2.28;;
73321;SDS011;61549;37.044;22.128;2022-08-25T15:50:51;4.03;;;1.90;;
73321;SDS011;61549;37.044;22.128;2022-08-25T15:53:19;2.47;;;1.40;;
73321;SDS011;61549;37.044;22.128;2022-08-25T15:55:46;1.75;;;0.98;;
73321;SDS011;61549;37.044;22.128;2022-08-25T15:58:14;1.95;;;1.10;;
73321;SDS011;61549;37.044;22.128;2022-08-25T16:00:41;3.17;;;1.20;;
73321;SDS011;61549;37.044;22.128;2022-08-25T16:03:08;1.55;;;1.10;;
73321;SDS011;61549;37.044;22.128;2022-08-25T16:05:35;1.95;;;1.17;;
73321;SDS011;61549;37.044;22.128;2022-08-25T16:08:02;3.15;;;1.05;;
73321;SDS011;61549;37.044;22.128;2022-08-25T16:10:31;2.05;;;0.90;;
73321;SDS011;61549;37.044;22.128;2022-08-25T16:13:01;2.20;;;1.10;;
73321;SDS011;61549;37.044;22.128;2022-08-25T16:15:28;1.67;;;1.00;;
73321;SDS011;61549;37.044;22.128;2022-08-25T16:17:58;1.48;;;0.90;;
73321;SDS011;61549;37.044;22.128;2022-08-25T16:20:25;1.67;;;1.20;;
73321;SDS011;61549;37.044;22.128;2022-08-25T16:22:52;10.52;;;1.73;;
73321;SDS011;61549;37.044;22.128;2022-08-25T16:25:18;8.00;;;2.47;;
73321;SDS011;61549;37.044;22.128;2022-08-25T16:27:47;10.73;;;2.45;;
73321;SDS011;61549;37.044;22.128;2022-08-25T16:30:14;7.78;;;2.20;;
73321;SDS011;61549;37.044;22.128;2022-08-25T16:32:41;6.60;;;2.20;;
73321;SDS011;61549;37.044;22.128;2022-08-25T16:35:07;5.35;;;2.50;;
73321;SDS011;61549;37.044;22.128;2022-08-25T16:37:33;6.20;;;2.42;;
73321;SDS011;61549;37.044;22.128;2022-08-25T16:39:59;4.97;;;2.03;;
73321;SDS011;61549;37.044;22.128;2022-08-25T16:42:26;6.75;;;2.53;;
73321;SDS011;61549;37.044;22.128;2022-08-25T16:44:53;3.95;;;2.22;;
73321;SDS011;61549;37.044;22.128;2022-08-25T16:47:19;2.95;;;1.75;;
73321;SDS011;61549;37.044;22.128;2022-08-25T16:49:46;3.55;;;2.15;;